Flight Track Log - Related Links

Times and Time Zones

All times are in EDT time to prevent confusion due to time zone crossing. See the AAL832 flight status page for this flight to view local times or setup timezone preferences in your user account.

Time Position Orientation Groundspeed Altitude Reporting Facility
EDT Latitude Longitude Course Direction KTS MPH feet Rate Location/Type
Thu 05:43:52 PM 41.9840 -87.9040 90° East 135 155  Level FlightAware
Thu 05:44:32 PM 41.9740 -87.8660 109° East 179 206 2,100 2,557 Climbing FlightAware
Thu 05:44:53 PM 41.9600 -87.8510 141° Southeast 203 234 2,600 1,371 Climbing FlightAware
Thu 05:45:07 PM 41.9490 -87.8380 139° Southeast 231 266 2,900 2,057 Climbing FlightAware
Thu 05:45:28 PM 41.9300 -87.8160 139° Southeast 254 292 3,800 2,757 Climbing FlightAware
Thu 05:45:44 PM 41.9150 -87.7990 140° Southeast 263 303 4,600 2,757 Climbing FlightAware
Thu 05:46:05 PM 41.8960 -87.7760 138° Southeast 279 321 5,500 2,757 Climbing FlightAware
Thu 05:46:21 PM 41.8800 -87.7590 142° Southeast 284 327 6,300 3,176 Climbing FlightAware
Thu 05:46:39 PM 41.8570 -87.7460 157° South 289 333 7,300 3,375 Climbing FlightAware
Thu 05:46:53 PM 41.8400 -87.7400 165° South 291 335 8,100 3,500 Climbing FlightAware
Thu 05:47:15 PM 41.8110 -87.7280 163° South 292 336 9,400 3,111 Climbing FlightAware
Thu 05:47:47 PM 41.7690 -87.7110 163° South 304 350 10,900 2,914 Climbing FlightAware
Thu 05:48:25 PM 41.7170 -87.6900 163° South 311 358 12,800 2,027 Climbing FlightAware
Thu 05:49:01 PM 41.6640 -87.6680 163° South 353 406 13,400 1,750 Climbing FlightAware
Thu 05:49:37 PM 41.6050 -87.6440 163° South 365 420 14,900 2,620 Climbing FlightAware
Thu 05:50:12 PM 41.5480 -87.6220 164° South 371 427 16,500 2,418 Climbing FlightAware
Thu 05:50:44 PM 41.4960 -87.6010 163° South 380 437 17,600 2,206 Climbing FlightAware
Thu 05:51:20 PM 41.4350 -87.5760 163° South 384 442 19,000 2,333 Climbing FlightAware
Thu 05:51:56 PM 41.3690 -87.5620 171° South 386 444 20,400 2,083 Climbing FlightAware
Thu 05:52:32 PM 41.3060 -87.5510 173° South 394 453 21,500 1,941 Climbing FlightAware
Thu 05:53:04 PM 41.2470 -87.5410 173° South 400 460 22,600 1,853 Climbing FlightAware
Thu 05:53:40 PM 41.1820 -87.5280 171° South 409 471 23,600 1,750 Climbing FlightAware
Thu 05:54:16 PM 41.1110 -87.5090 169° South 417 480 24,700 1,667 Climbing FlightAware
Thu 05:54:52 PM 41.0440 -87.4910 169° South 424 488 25,600 1,371 Climbing FlightAware
Thu 05:55:26 PM 40.9790 -87.4730 168° South 434 499 26,300 1,286 Climbing FlightAware
Thu 05:56:02 PM 40.9050 -87.4530 168° South 440 506 27,100 1,324 Climbing FlightAware
Thu 05:56:34 PM 40.8430 -87.4430 173° South 434 499 27,800 1,313 Climbing FlightAware
Thu 05:57:06 PM 40.7770 -87.4420 179° South 438 504 28,500 1,297 Climbing FlightAware
Thu 05:57:48 PM 40.6930 -87.4410 179° South 440 506 29,400 1,216 Climbing FlightAware
Thu 05:58:20 PM 40.6310 -87.4410 180° South 443 510 30,000 1,235 Climbing FlightAware
Thu 05:58:56 PM 40.5580 -87.4420 181° South 445 512 30,800 1,406 Climbing FlightAware
Thu 05:59:24 PM 40.5010 -87.4430 181° South 443 510 31,500 1,457 Climbing FlightAware
Thu 06:00:06 PM 40.4110 -87.4350 176° South 452 520 32,500 1,462 Climbing FlightAware
Thu 06:00:42 PM 40.3410 -87.3870 152° Southeast 463 533 33,400 1,324 Climbing FlightAware
Thu 06:01:14 PM 40.2850 -87.3390 147° Southeast 462 532 34,000 1,059 Climbing FlightAware
Thu 06:01:50 PM 40.2210 -87.2860 148° Southeast 464 534 34,600 1,065 Climbing FlightAware
Thu 06:02:16 PM 40.1720 -87.2460 148° Southeast 463 533 35,100 1,125 Climbing FlightAware
Thu 06:02:54 PM 40.1060 -87.1910 147° Southeast 463 533 35,800 730 Climbing FlightAware
Thu 06:03:30 PM 40.0410 -87.1380 148° Southeast 463 533 36,000 179 Climbing FlightAware
Thu 06:04:01 PM 39.9830 -87.0910 148° Southeast 462 532 36,000  Level FlightAware
Thu 06:04:36 PM 39.9210 -87.0390 147° Southeast 461 531 36,000  Level FlightAware
Thu 06:05:13 PM 39.8540 -86.9830 147° Southeast 459 528 36,000  Level FlightAware
Thu 06:05:51 PM 39.7860 -86.9270 148° Southeast 458 527 36,000  Level FlightAware
Thu 06:06:22 PM 39.7280 -86.8800 148° Southeast 457 526 36,000  Level FlightAware
Thu 06:07:07 PM 39.6480 -86.8140 148° Southeast 457 526 36,000  Level FlightAware
Thu 06:07:39 PM 39.5910 -86.7670 148° Southeast 459 528 36,000 529 Level FlightAware
Thu 06:08:15 PM 39.5280 -86.7150 148° Southeast 457 526 36,600 833 Climbing FlightAware
Thu 06:08:51 PM 39.4630 -86.6620 148° Southeast 454 522 37,000 333 Climbing FlightAware
Thu 06:09:27 PM 39.3990 -86.6100 148° Southeast 452 520 37,000  Level FlightAware
Thu 06:09:59 PM 39.3460 -86.5670 148° Southeast 452 520 37,000  Level FlightAware
Thu 06:10:33 PM 39.2820 -86.5160 148° Southeast 453 521 37,000  Level FlightAware
Thu 06:11:11 PM 39.2150 -86.4610 148° Southeast 453 521 37,000  Level FlightAware
Thu 06:11:52 PM 39.1510 -86.4090 148° Southeast 453 521 37,000  Level FlightAware
Thu 06:12:29 PM 39.0750 -86.3480 148° Southeast 454 522 37,000  Level FlightAware
Thu 06:13:05 PM 39.0120 -86.2970 148° Southeast 455 524 37,000  Level FlightAware
Thu 06:13:37 PM 38.9550 -86.2510 148° Southeast 455 524 37,000  Level FlightAware
Thu 06:14:15 PM 38.8890 -86.1980 148° Southeast 455 524 37,000  Level FlightAware
Thu 06:14:51 PM 38.8230 -86.1460 148° Southeast 455 524 37,000  Level FlightAware
Thu 06:15:22 PM 38.7670 -86.1010 148° Southeast 453 521 37,000  Level FlightAware
Thu 06:15:58 PM 38.7050 -86.0510 148° Southeast 451 519 37,000  Level FlightAware
Thu 06:16:34 PM 38.6410 -86.0000 148° Southeast 448 516 37,000  Level FlightAware
Thu 06:17:06 PM 38.5840 -85.9550 148° Southeast 445 512 37,000  Level FlightAware
Thu 06:17:40 PM 38.5240 -85.9080 148° Southeast 445 512 37,000  Level FlightAware
Thu 06:18:26 PM 38.4430 -85.8440 148° Southeast 447 514 37,000  Level FlightAware
Thu 06:19:00 PM 38.3830 -85.7970 148° Southeast 449 517 37,000  Level FlightAware
Thu 06:19:36 PM 38.3210 -85.7480 148° Southeast 449 517 37,000  Level FlightAware
Thu 06:20:12 PM 38.2600 -85.7000 148° Southeast 448 516 37,000  Level FlightAware
Thu 06:20:48 PM 38.1930 -85.6470 148° Southeast 447 514 37,000  Level FlightAware
Thu 06:21:19 PM 38.1390 -85.6050 149° Southeast 447 514 37,000  Level FlightAware
Thu 06:21:55 PM 38.0760 -85.5560 149° Southeast 446 513 37,000  Level FlightAware
Thu 06:22:31 PM 38.0130 -85.5060 148° Southeast 446 513 37,000  Level FlightAware
Thu 06:23:05 PM 37.9540 -85.4590 148° Southeast 445 512 37,000  Level FlightAware
Thu 06:23:41 PM 37.8900 -85.4090 148° Southeast 444 511 37,000  Level FlightAware
Thu 06:24:11 PM 37.8370 -85.3670 148° Southeast 444 511 37,000  Level FlightAware
Thu 06:24:44 PM 37.7800 -85.3226 148° Southeast 447 514 37,000  Level FlightAware
Thu 06:25:25 PM 37.7070 -85.2650 148° Southeast 451 519 37,000  Level FlightAware
Thu 06:25:40 PM 37.6807 -85.2448 149° Southeast 451 519 37,000  Level FlightAware
Thu 06:26:10 PM 37.6262 -85.2023 148° Southeast 451 519 37,000  Level FlightAware
Thu 06:26:42 PM 37.5703 -85.1585 148° Southeast 450 518 37,000  Level FlightAware
Thu 06:27:12 PM 37.5167 -85.1168 148° Southeast 450 518 37,000  Level FlightAware
Thu 06:27:43 PM 37.4623 -85.0745 148° Southeast 449 517 37,000  Level FlightAware
Thu 06:28:15 PM 37.4069 -85.0315 148° Southeast 448 516 37,000  Level FlightAware
Thu 06:28:48 PM 37.3487 -84.9865 148° Southeast 448 516 37,000  Level FlightAware
Thu 06:29:20 PM 37.2919 -84.9427 148° Southeast 448 516 37,000  Level FlightAware
Thu 06:29:50 PM 37.2386 -84.9016 148° Southeast 448 516 37,000  Level FlightAware
Thu 06:30:20 PM 37.1851 -84.8606 149° Southeast 456 525 37,000 295 Level FlightAware
Thu 06:30:51 PM 37.1294 -84.8175 148° Southeast 459 528 37,300 689 Climbing FlightAware
Thu 06:31:21 PM 37.0742 -84.7750 148° Southeast 460 529 37,700 900 Climbing FlightAware
Thu 06:31:51 PM 37.0200 -84.7335 149° Southeast 457 526 38,200 900 Climbing FlightAware
Thu 06:32:21 PM 36.9659 -84.6922 149° Southeast 457 526 38,600 646 Climbing FlightAware
Thu 06:32:56 PM 36.9025 -84.6440 149° Southeast 457 526 38,900 364 Climbing FlightAware
Thu 06:33:27 PM 36.8466 -84.6015 149° Southeast 460 529 39,000 95 Climbing FlightAware
Thu 06:33:59 PM 36.7890 -84.5577 149° Southeast 461 531 39,000  Level FlightAware
Thu 06:34:29 PM 36.7336 -84.5157 149° Southeast 462 532 39,000  Level FlightAware
Thu 06:35:00 PM 36.6772 -84.4727 149° Southeast 461 531 39,000  Level FlightAware
Thu 06:35:30 PM 36.6224 -84.4312 149° Southeast 460 529 39,000  Level FlightAware
Thu 06:36:01 PM 36.5663 -84.3888 149° Southeast 460 529 39,000  Level FlightAware
Thu 06:36:31 PM 36.5118 -84.3476 149° Southeast 459 528 39,000  Level FlightAware
Thu 06:36:55 PM 36.4688 -84.3150 149° Southeast 459 528 39,000  Level FlightAware
Thu 06:37:27 PM 36.4149 -84.2635 142° Southeast 460 529 39,000  Level FlightAware
Thu 06:38:01 PM 36.3584 -84.2072 141° Southeast 460 529 39,000  Level FlightAware
Thu 06:38:36 PM 36.3008 -84.1503 141° Southeast 461 531 39,000  Level FlightAware
Thu 06:39:07 PM 36.2495 -84.0995 141° Southeast 460 529 39,000  Level FlightAware
Thu 06:39:39 PM 36.1954 -84.0463 142° Southeast 461 531 39,000  Level FlightAware
Thu 06:40:04 PM 36.1541 -84.0059 142° Southeast 463 533 39,000  Level FlightAware
Thu 06:40:35 PM 36.1021 -83.9561 142° Southeast 464 534 39,000  Level FlightAware
Thu 06:41:06 PM 36.0500 -83.9060 142° Southeast 465 535 39,000  Level FlightAware
Thu 06:41:36 PM 35.9987 -83.8567 142° Southeast 465 535 39,000  Level FlightAware
Thu 06:42:07 PM 35.9460 -83.8066 142° Southeast 466 536 39,000  Level FlightAware
Thu 06:42:37 PM 35.8938 -83.7573 143° Southeast 466 536 39,000  Level FlightAware
Thu 06:43:11 PM 35.8359 -83.7030 143° Southeast 467 537 39,000  Level FlightAware
Thu 06:43:42 PM 35.7825 -83.6532 143° Southeast 468 539 39,000  Level FlightAware
Thu 06:44:12 PM 35.7299 -83.6041 143° Southeast 470 541 39,000  Level FlightAware
Thu 06:44:42 PM 35.6775 -83.5562 143° Southeast 470 541 39,000  Level FlightAware
Thu 06:45:15 PM 35.6167 -83.5106 149° Southeast 470 541 39,000  Level FlightAware
Thu 06:45:39 PM 35.5714 -83.4775 149° Southeast 471 542 39,000  Level FlightAware
Thu 06:45:48 PM 35.5549 -83.4667 152° Southeast 471 542 39,000  Level FlightAware
Thu 06:46:02 PM 35.5269 -83.4516 156° South 472 543 39,000  Level FlightAware
Thu 06:46:32 PM 35.4637 -83.4251 161° South 474 545 39,000  Level FlightAware
Thu 06:47:06 PM 35.3934 -83.3964 162° South 476 548 39,000  Level FlightAware
Thu 06:47:37 PM 35.3284 -83.3707 162° South 478 550 39,000  Level FlightAware
Thu 06:48:10 PM 35.2598 -83.3439 162° South 479 551 39,000  Level FlightAware
Thu 06:48:49 PM 35.1760 -83.3113 162° South 480 552 39,000  Level FlightAware
Thu 06:49:19 PM 35.1125 -83.2863 162° South 480 552 39,000  Level FlightAware
Thu 06:49:50 PM 35.0473 -83.2606 162° South 481 554 39,000  Level FlightAware
Thu 06:50:20 PM 34.9830 -83.2353 162° South 480 552 39,000  Level FlightAware
Thu 06:50:51 PM 34.9195 -83.2106 162° South 476 548 39,000  Level FlightAware
Thu 06:51:22 PM 34.8538 -83.1850 162° South 472 543 39,000  Level FlightAware
Thu 06:51:52 PM 34.7909 -83.1604 162° South 469 540 39,000  Level FlightAware
Thu 06:52:24 PM 34.7254 -83.1347 162° South 469 540 39,000  Level FlightAware
Thu 06:52:55 PM 34.6619 -83.1098 162° South 469 540 39,000  Level FlightAware
Thu 06:53:26 PM 34.5973 -83.0847 162° South 468 539 39,000  Level FlightAware
Thu 06:54:09 PM 34.5090 -83.0500 162° South 468 539 39,000  Level FlightAware
Thu 06:54:43 PM 34.4420 -83.0240 162° South 469 540 39,000  Level FlightAware
Thu 06:54:51 PM 34.4217 -83.0166 163° South 468 539 39,000  Level FlightAware
Thu 06:55:51 PM 34.2972 -82.9685 162° South 471 542 39,000  Level FlightAware
Thu 06:56:25 PM 34.2270 -82.9420 163° South 471 542 39,000  Level FlightAware
Thu 06:57:03 PM 34.1500 -82.9120 162° South 472 543 39,000  Level FlightAware
Thu 06:57:37 PM 34.0810 -82.8850 162° South 472 543 39,000  Level FlightAware
Thu 06:58:12 PM 34.0050 -82.8560 162° South 471 542 39,000 -338 Level FlightAware
Thu 06:58:48 PM 33.9300 -82.8270 162° South 469 540 38,600 -833 Descending FlightAware
Thu 06:59:24 PM 33.8550 -82.7980 162° South 470 541 38,000 -522 Descending FlightAware
Thu 06:59:57 PM 33.7880 -82.7730 163° South 471 542 38,000  Level FlightAware
Thu 07:00:36 PM 33.7053 -82.7417 163° South 471 542 38,000  Level FlightAware
Thu 07:01:08 PM 33.6400 -82.7170 163° South 472 543 38,000  Level FlightAware
Thu 07:01:44 PM 33.5680 -82.6900 163° South 473 544 38,000  Level FlightAware
Thu 07:02:16 PM 33.5000 -82.6640 162° South 475 547 38,000  Level FlightAware
Thu 07:02:54 PM 33.4210 -82.6340 162° South 476 548 38,000  Level FlightAware
Thu 07:03:29 PM 33.3430 -82.6040 162° South 477 549 38,000  Level FlightAware
Thu 07:04:01 PM 33.2770 -82.5790 162° South 477 549 38,000  Level FlightAware
Thu 07:04:39 PM 33.1970 -82.5490 163° South 475 547 38,000  Level FlightAware
Thu 07:05:15 PM 33.1240 -82.5220 163° South 474 545 38,000  Level FlightAware
Thu 07:05:47 PM 33.0570 -82.4970 163° South 472 543 38,000  Level FlightAware
Thu 07:06:23 PM 32.9790 -82.4680 163° South 472 543 38,000  Level FlightAware
Thu 07:07:11 PM 32.8830 -82.4320 163° South 472 543 38,000  Level FlightAware
Thu 07:07:46 PM 32.8080 -82.4040 163° South 472 543 38,000  Level FlightAware
Thu 07:08:21 PM 32.7350 -82.3770 163° South 472 543 38,000  Level FlightAware
Thu 07:08:56 PM 32.6690 -82.3520 162° South 470 541 38,000  Level FlightAware
Thu 07:09:31 PM 32.5930 -82.3240 163° South 469 540 38,000  Level FlightAware
Thu 07:10:05 PM 32.5180 -82.2960 163° South 468 539 38,000  Level FlightAware
Thu 07:10:44 PM 32.4500 -82.2700 162° South 468 539 38,000  Level FlightAware
Thu 07:11:31 PM 32.3420 -82.2310 163° South 469 540 38,000  Level FlightAware
Thu 07:12:26 PM 32.2490 -82.1960 162° South 468 539 38,000  Level FlightAware
Thu 07:12:59 PM 32.1570 -82.1630 163° South 465 535 38,000  Level FlightAware
Thu 07:13:35 PM 32.0850 -82.1370 163° South 461 531 38,000  Level FlightAware
Thu 07:14:20 PM 32.0050 -82.1070 162° South 460 529 38,000  Level FlightAware
Thu 07:14:36 PM 31.9810 -82.0990 164° South 257 296 38,000  Level FlightAware
Thu 07:19:38 PM 31.3580 -81.8730 163° South 467 537 38,000  Level FlightAware
Thu 07:20:25 PM 31.2700 -81.8400 162° South 467 537 38,000  Level FlightAware
Thu 07:21:01 PM 31.2080 -81.8160 162° South 467 537 38,000  Level FlightAware
Thu 07:21:37 PM 31.1450 -81.7920 162° South 467 537 38,000  Level FlightAware
Thu 07:22:13 PM 31.0820 -81.7680 162° South 467 537 38,000  Level FlightAware
Thu 07:22:50 PM 31.0170 -81.7440 162° South 467 537 38,000  Level FlightAware
Thu 07:23:26 PM 30.9540 -81.7200 162° South 467 537 38,000  Level FlightAware
Thu 07:24:02 PM 30.8910 -81.6960 162° South 467 537 38,000  Level FlightAware
Thu 07:24:38 PM 30.8290 -81.6720 162° South 467 537 38,000  Level FlightAware
Thu 07:25:16 PM 30.6540 -81.6210 166° South 469 540 38,000  Level FlightAware
Thu 07:25:46 PM 30.5920 -81.6000 164° South 468 539 38,000  Level FlightAware
Thu 07:26:28 PM 30.5010 -81.5670 163° South 471 542 38,000  Level FlightAware
Thu 07:26:58 PM 30.4280 -81.5410 163° South 472 543 38,000  Level FlightAware
Thu 07:27:34 PM 30.3590 -81.5170 163° South 473 544 38,000  Level FlightAware
Thu 07:28:15 PM 30.2670 -81.4830 162° South 473 544 38,000  Level FlightAware
Thu 07:28:49 PM 30.1960 -81.4540 161° South 474 545 38,000  Level FlightAware
Thu 07:29:21 PM 30.1300 -81.4290 162° South 474 545 38,000  Level FlightAware
Thu 07:29:56 PM 30.0620 -81.4020 161° South 476 548 38,000  Level FlightAware
Thu 07:30:30 PM 30.0000 -81.3790 162° South 478 550 38,000  Level FlightAware
Thu 07:31:07 PM 29.9060 -81.3430 162° South 478 550 38,000  Level FlightAware
Thu 07:31:46 PM 29.8350 -81.3150 161° South 478 550 38,000  Level FlightAware
Thu 07:32:30 PM 29.7360 -81.2780 162° South 480 552 38,000  Level FlightAware
Thu 07:33:10 PM 29.6630 -81.2500 162° South 480 552 38,000  Level FlightAware
Thu 07:33:46 PM 29.5980 -81.2260 162° South 480 552 38,000  Level FlightAware
Thu 07:34:22 PM 29.5330 -81.2020 162° South 480 552 38,000  Level FlightAware
Thu 07:34:59 PM 29.4670 -81.1770 162° South 480 552 38,000  Level FlightAware
Thu 07:35:35 PM 29.4020 -81.1530 162° South 480 552 38,000  Level FlightAware
Thu 07:36:11 PM 29.3380 -81.1290 162° South 480 552 38,000  Level FlightAware
Thu 07:37:13 PM 29.1440 -81.0490 160° South 467 537 38,000  Level FlightAware
Thu 07:37:44 PM 29.0820 -81.0230 160° South 466 536 38,000  Level FlightAware
Thu 07:38:19 PM 29.0100 -80.9950 161° South 470 541 38,000  Level FlightAware
Thu 07:38:59 PM 28.9280 -80.9620 161° South 470 541 38,000  Level FlightAware
Thu 07:39:29 PM 28.8680 -80.9380 161° South 470 541 38,000  Level FlightAware
Thu 07:40:14 PM 28.7760 -80.9010 161° South 463 533 38,000  Level FlightAware
Thu 07:40:50 PM 28.6980 -80.8700 161° South 471 542 38,000  Level FlightAware
Thu 07:41:23 PM 28.6320 -80.8440 161° South 471 542 38,000  Level FlightAware
Thu 07:41:53 PM 28.5700 -80.8190 160° South 472 543 38,000  Level FlightAware
Thu 07:42:35 PM 28.4820 -80.7840 161° South 471 542 38,000  Level FlightAware
Thu 07:42:55 PM 28.4470 -80.7610 150° Southeast 456 525 38,000  Level FlightAware
Thu 07:43:09 PM 28.4280 -80.7370 132° Southeast 439 505 38,000  Level FlightAware
Thu 07:43:43 PM 28.3950 -80.6780 122° Southeast 433 498 38,000  Level FlightAware
Thu 07:44:20 PM 28.3570 -80.6070 121° Southeast 433 498 38,000  Level FlightAware
Thu 07:44:57 PM 28.3080 -80.5300 126° Southeast 447 514 38,000  Level FlightAware
Thu 07:45:20 PM 28.2710 -80.5090 153° Southeast 471 542 38,000  Level FlightAware
Thu 07:45:51 PM 28.1990 -80.4980 172° South 483 556 38,000 -370 Level FlightAware
Thu 07:46:41 PM 28.0870 -80.4770 171° South 474 545 37,500 -805 Descending FlightAware
Thu 07:47:13 PM 28.0190 -80.4650 171° South 471 542 36,900 -706 Descending FlightAware
Thu 07:48:06 PM 27.9730 -80.4560 170° South 471 542 36,500 -1,267 Descending FlightAware
Thu 07:48:43 PM 27.8340 -80.4320 171° South 458 527 35,000 -1,350 Descending FlightAware
Thu 07:49:26 PM 27.7510 -80.4160 170° South 459 528 34,700 -3,081 Descending FlightAware
Thu 07:49:57 PM 27.6700 -80.4030 172° South 468 539 31,200 -4,583 Descending FlightAware
Thu 07:50:38 PM 27.5750 -80.3860 171° South 475 547 29,200 -2,022 Descending FlightAware
Thu 07:51:29 PM 27.4730 -80.3670 171° South 470 541 28,100 -2,400 Descending FlightAware
Thu 07:51:58 PM 27.4090 -80.3560 171° South 454 522 26,000 -3,281 Descending FlightAware
Thu 07:52:33 PM 27.3340 -80.3420 171° South 436 502 24,600 -1,714 Descending FlightAware
Thu 07:53:08 PM 27.2650 -80.3220 166° South 425 489 24,000 -480 Descending FlightAware
Thu 07:53:48 PM 27.1940 -80.2940 161° South 407 468 24,000  Level FlightAware
Thu 07:54:18 PM 27.1400 -80.2720 160° South 413 475 24,000 -92 Level FlightAware
Thu 07:54:53 PM 27.0740 -80.2450 160° South 413 475 23,900 -1,200 Descending FlightAware
Thu 07:55:33 PM 27.0020 -80.2160 160° South 408 470 22,500 -2,229 Descending FlightAware
Thu 07:56:03 PM 26.9470 -80.1940 160° South 411 473 21,300 -2,273 Descending FlightAware
Thu 07:56:39 PM 26.8860 -80.1690 160° South 396 456 20,000 -2,400 Descending FlightAware
Thu 07:57:18 PM 26.8160 -80.1410 160° South 379 436 18,300 -2,757 Descending FlightAware
Thu 07:57:53 PM 26.7580 -80.1180 161° South 378 435 16,600 -2,560 Descending FlightAware
Thu 07:58:33 PM 26.6930 -80.0920 160° South 358 412 15,100 -1,231 Descending FlightAware
Thu 07:59:11 PM 26.6370 -80.0790 168° South 356 410 15,000 -857 Descending FlightAware
Thu 07:59:43 PM 26.5770 -80.0690 172° South 356 410 14,100 -1,391 Descending FlightAware
Thu 08:00:20 PM 26.5200 -80.0590 171° South 346 398 13,400 -986 Descending FlightAware
Thu 08:00:56 PM 26.4620 -80.0490 171° South 341 392 12,900 -435 Descending FlightAware
Thu 08:01:29 PM 26.4100 -80.0400 171° South 339 390 12,900 -600 Level FlightAware
Thu 08:02:06 PM 26.3540 -80.0300 171° South 335 386 12,200 -1,135 Descending FlightAware
Thu 08:02:43 PM 26.2970 -80.0200 171° South 327 376 11,500 -1,129 Descending FlightAware
Thu 08:03:31 PM 26.2250 -80.0210 181° South 323 372 10,600 -1,139 Descending FlightAware
Thu 08:04:02 PM 26.1820 -80.0330 194° South 310 357 10,000 -750 Descending FlightAware
Thu 08:04:27 PM 26.1480 -80.0430 195° South 290 334 9,900 -133 Descending FlightAware
Thu 08:04:47 PM 26.1220 -80.0500 194° South 270 311 9,900 188 Level FlightAware
Thu 08:04:59 PM 26.1090 -80.0540 195° South 258 297 10,000 -486 Climbing FlightAware
Thu 08:05:24 PM 26.0820 -80.0620 195° South 244 281 9,600 -1,364 Descending FlightAware
Thu 08:05:43 PM 26.0600 -80.0680 194° South 246 283 9,000 -1,500 Descending FlightAware
Thu 08:06:04 PM 26.0370 -80.0740 193° South 243 280 8,600 -1,317 Descending FlightAware
Thu 08:06:24 PM 26.0150 -80.0810 196° South 241 277 8,100 -977 Descending FlightAware
Thu 08:06:47 PM 25.9900 -80.0880 194° South 238 274 7,900 -343 Descending FlightAware
Thu 08:06:59 PM 25.9780 -80.0930 201° Southwest 241 277 7,900 300 Level FlightAware
Thu 08:07:07 PM 25.9700 -80.0980 209° Southwest 243 280 8,000 214 Climbing FlightAware
Thu 08:07:27 PM 25.9530 -80.1140 220° Southwest 251 289 8,000  Level FlightAware
Thu 08:07:35 PM 25.9470 -80.1230 233° Southwest 254 292 8,000  Level FlightAware
Thu 08:07:55 PM 25.9350 -80.1450 239° Southwest 253 291 8,000 -146 Level FlightAware
Thu 08:08:16 PM 25.9220 -80.1690 239° Southwest 258 297 7,900 -207 Descending FlightAware
Thu 08:08:24 PM 25.9190 -80.1790 252° West 258 297 7,900 -1,125 Level FlightAware
Thu 08:08:32 PM 25.9170 -80.1890 257° West 258 297 7,600 -1,714 Descending FlightAware
Thu 08:08:52 PM 25.9210 -80.2130 281° West 260 299 7,100 -1,538 Descending FlightAware
Thu 08:09:11 PM 25.9270 -80.2390 284° West 260 299 6,600 -1,350 Descending FlightAware
Thu 08:09:32 PM 25.9330 -80.2650 284° West 257 296 6,200 -933 Descending FlightAware
Thu 08:09:56 PM 25.9400 -80.2960 284° West 251 289 5,900 -400 Descending FlightAware
Thu 08:10:17 PM 25.9460 -80.3220 284° West 248 285 5,900  Level FlightAware
Thu 08:10:37 PM 25.9520 -80.3470 285° West 251 289 5,900 -600 Level FlightAware
Thu 08:10:57 PM 25.9580 -80.3730 284° West 246 283 5,500 -1,200 Descending FlightAware
Thu 08:11:17 PM 25.9630 -80.3960 284° West 246 283 5,100 -1,400 Descending FlightAware
Thu 08:11:27 PM 25.9640 -80.4100 275° West 245 282 4,800 -1,263 Descending FlightAware
Thu 08:11:55 PM 25.9520 -80.4350 242° Southwest 216 249 4,300 -1,200 Descending FlightAware
Thu 08:11:57 PM 25.9480 -80.4380 214° Southwest 203 234 4,200 -1,500 Descending FlightAware
Thu 08:12:03 PM 25.9430 -80.4390 190° South 206 237 4,100 -1,600 Descending FlightAware
Thu 08:12:12 PM 25.9340 -80.4400 186° South 191 220 3,800 -1,448 Descending FlightAware
Thu 08:12:32 PM 25.9180 -80.4370 170° South 183 211 3,400 -1,371 Descending FlightAware
Thu 08:12:47 PM 25.9070 -80.4340 166° South 190 219 3,000 -1,680 Descending FlightAware
Thu 08:12:57 PM 25.8960 -80.4290 158° South 176 203 2,700 -1,200 Descending FlightAware
Thu 08:13:17 PM 25.8800 -80.4220 159° South 177 204 2,400 -720 Descending FlightAware
Thu 08:13:47 PM 25.8590 -80.4100 153° Southeast 184 212 2,100 -600 Descending FlightAware
Thu 08:13:57 PM 25.8520 -80.4030 138° Southeast 183 211 2,000 -600 Descending FlightAware
Thu 08:14:07 PM 25.8470 -80.3950 125° Southeast 175 201 1,900 -1,000 Descending FlightAware
Thu 08:14:27 PM 25.8390 -80.3800 121° Southeast 163 188 1,500 -1,000 Descending FlightAware
Thu 08:14:43 PM 25.8340 -80.3700 119° Southeast 155 178 1,300 -857 Descending FlightAware
Thu 08:15:02 PM 25.8270 -80.3560 119° Southeast 148 170 1,000 -900 Descending FlightAware
Thu 08:15:23 PM 25.8190 -80.3410 121° Southeast 145 167 700 -789 Descending FlightAware
Thu 08:15:40 PM 25.8140 -80.3310 119° Southeast 144 166 500 -667 Descending FlightAware
Thu 08:15:59 PM 25.8080 -80.3190 119° Southeast 144 166 300 -615 Descending FlightAware
Thu 08:16:19 PM 25.8010 -80.3060 121° Southeast 142 163 100 -600 Descending FlightAware
Thu 08:16:40 PM 25.7940 -80.2930 121° Southeast 115 132 -286 Descending FlightAware

Login

Don't have an account? Register now (free) for customized features, flight alerts, and more!